createdAt,value
2022-10-11T00:08:37.183Z,98919.77
2022-10-11T00:18:44.807Z,98926.41
2022-10-11T00:28:54.219Z,98934.39
2022-10-11T00:39:01.989Z,98934.05
2022-10-11T00:49:15.870Z,98926.95
2022-10-11T00:59:24.625Z,98931.99
2022-10-11T01:09:32.961Z,98932.30
2022-10-11T01:19:43.721Z,98927.11
2022-10-11T01:29:55.102Z,98920.70
2022-10-11T01:40:08.584Z,98923.65
2022-10-11T01:50:45.471Z,98920.55
2022-10-11T02:00:50.478Z,98919.93
2022-10-11T02:10:56.274Z,98926.68
2022-10-11T02:21:06.960Z,98931.20
2022-10-11T02:31:16.735Z,98928.64
2022-10-11T02:41:24.632Z,98928.41
2022-10-11T02:51:32.875Z,98937.05
2022-10-11T03:01:40.010Z,98938.84
2022-10-11T03:11:47.225Z,98944.70
2022-10-11T03:21:54.544Z,98951.48
2022-10-11T03:32:02.293Z,98957.48
2022-10-11T03:42:09.848Z,98960.14
2022-10-11T03:52:16.789Z,98972.09
2022-10-11T04:02:23.796Z,98983.02
2022-10-11T04:12:30.823Z,98991.14
2022-10-11T04:22:38.673Z,98999.37
2022-10-11T04:32:45.292Z,99009.92
2022-10-11T04:42:54.001Z,99016.62
2022-10-11T04:53:00.936Z,99028.21
2022-10-11T05:03:07.882Z,99038.16
2022-10-11T05:13:14.792Z,99051.77
2022-10-11T05:23:21.875Z,99067.01
2022-10-11T05:33:29.098Z,99074.02
2022-10-11T05:43:36.518Z,99081.94
2022-10-11T05:53:43.561Z,99099.70
2022-10-11T06:03:51.144Z,99110.40
2022-10-11T06:13:58.264Z,99123.27
2022-10-11T06:24:05.916Z,99134.40
2022-10-11T06:34:13.328Z,99152.90
2022-10-11T06:44:20.695Z,99163.15
2022-10-11T06:54:26.598Z,99176.14
2022-10-11T07:04:33.209Z,99183.40
2022-10-11T07:14:41.101Z,99198.77
2022-10-11T07:24:49.354Z,99225.08
2022-10-11T07:34:55.908Z,99250.30
2022-10-11T07:45:03.324Z,99263.88
2022-10-11T07:55:11.729Z,99274.09
2022-10-11T08:05:17.687Z,99288.74
2022-10-11T08:15:24.757Z,99293.77
2022-10-11T08:25:31.707Z,99301.83
2022-10-11T08:35:39.036Z,99306.35
2022-10-11T08:45:51.695Z,99309.52
2022-10-11T08:55:58.827Z,99315.95
2022-10-11T09:06:07.709Z,99322.52
2022-10-11T09:16:15.584Z,99333.20
2022-10-11T09:26:29.017Z,99343.40
2022-10-11T09:36:37.196Z,99348.26
2022-10-11T09:46:43.784Z,99352.13
2022-10-11T09:56:51.573Z,99357.67
2022-10-11T10:07:11.279Z,99354.61
2022-10-11T10:17:20.117Z,99360.97
2022-10-11T10:27:30.103Z,99359.84
2022-10-11T10:37:37.573Z,99362.16
2022-10-11T10:48:05.826Z,99363.56
2022-10-11T10:58:32.018Z,99368.03
2022-10-11T11:08:56.005Z,99375.04
2022-10-11T11:19:07.748Z,99382.00
2022-10-11T11:29:15.838Z,99379.30
2022-10-11T11:39:23.701Z,99391.93
2022-10-11T11:59:37.344Z,99388.09
2022-10-11T12:09:50.695Z,99383.12
2022-10-11T12:20:21.408Z,99389.52
2022-10-11T12:30:51.020Z,99384.81
2022-10-11T12:40:57.263Z,99388.46
2022-10-11T12:51:16.273Z,99391.43
2022-10-11T13:01:22.262Z,99393.75
2022-10-11T13:11:30.219Z,99402.56
2022-10-11T13:21:39.822Z,99400.92
2022-10-11T13:31:49.238Z,99404.25
2022-10-11T13:41:55.549Z,99402.54
2022-10-11T13:52:07.126Z,99407.78
2022-10-11T14:02:14.437Z,99411.19
2022-10-11T14:12:29.373Z,99415.30
2022-10-11T14:22:36.979Z,99416.36
2022-10-11T14:32:44.552Z,99421.23
2022-10-11T14:42:52.359Z,99422.64
2022-10-11T14:53:00.235Z,99426.78
2022-10-11T15:03:07.436Z,99440.10
2022-10-11T15:13:13.261Z,99438.40
2022-10-11T15:23:21.018Z,99443.70
2022-10-11T15:33:28.396Z,99445.36
2022-10-11T15:43:35.577Z,99445.60
2022-10-11T15:53:42.881Z,99454.81
2022-10-11T16:03:51.876Z,99464.30
2022-10-11T16:13:59.396Z,99470.52
2022-10-11T16:24:07.014Z,99487.52
2022-10-11T16:34:14.140Z,99500.39
2022-10-11T16:44:21.347Z,99510.37
2022-10-11T16:54:30.467Z,99515.82
2022-10-11T17:04:37.659Z,99522.52
2022-10-11T17:14:43.915Z,99526.25
2022-10-11T17:34:57.656Z,99542.18
2022-10-11T17:45:04.949Z,99549.14
2022-10-11T17:55:09.816Z,99547.82
2022-10-11T18:05:17.895Z,99546.73
2022-10-11T18:15:24.947Z,99546.73
2022-10-11T18:25:33.975Z,99548.34
2022-10-11T18:35:40.187Z,99549.36
2022-10-11T18:45:47.575Z,99539.89
2022-10-11T18:55:58.590Z,99543.83
2022-10-11T19:06:03.855Z,99546.91
2022-10-11T19:16:12.033Z,99546.55
2022-10-11T19:26:34.436Z,99546.94
2022-10-11T19:36:41.172Z,99554.42
2022-10-11T19:46:52.994Z,99556.05
2022-10-11T19:57:00.813Z,99562.27
2022-10-11T20:07:08.079Z,99566.10
2022-10-11T20:17:16.353Z,99573.12
2022-10-11T20:27:22.663Z,99575.27
2022-10-11T20:37:28.799Z,99577.48
2022-10-11T20:47:36.521Z,99579.17
2022-10-11T20:57:44.257Z,99580.20
2022-10-11T21:07:53.234Z,99578.73
2022-10-11T21:18:00.334Z,99583.18
2022-10-11T21:28:08.241Z,99584.80
2022-10-11T21:38:15.476Z,99587.98
2022-10-11T21:48:23.130Z,99591.96
2022-10-11T21:58:31.168Z,99596.27
2022-10-11T22:08:40.523Z,99593.33
2022-10-11T22:18:47.246Z,99585.57
2022-10-11T22:28:54.533Z,99585.20
2022-10-11T22:39:03.027Z,99587.87
2022-10-11T22:49:10.426Z,99585.08
2022-10-11T22:59:17.068Z,99589.41
2022-10-11T23:09:24.308Z,99588.13
2022-10-11T23:19:31.516Z,99587.78
2022-10-11T23:29:38.456Z,99591.55
2022-10-11T23:39:45.776Z,99596.05
2022-10-11T23:49:53.074Z,99597.52
2022-10-11T23:59:59.149Z,99603.61
